Weather Data

Pearl Creek Farm: 8878 N Farm Road 75, Walnut Grove MO 65770

<== Previous Day (Sunday 10 Aug 2008) | Next Day (Tuesday 12 Aug 2008) ==>

Summary Precipitation Data For Monday 11 August 2008

ElementValueUnits
Precipitation0"
Notes(none)
SourceSpringfield-Branson National Airport (SGF)

Summary Temperature Data For Monday 11 August 2008

ElementValueUnits
High Temperature82 oF
Low Temperature65 oF
Average Temperature74 oF
High Humidity93 %
Low Humidity49 %
Average Humidity71 %
SourceSpringfield-Branson National Airport (SGF)

Detail Temperature Data For Monday 11 August 2008

Date / TimeTemp (F)RH (%)Dew Pt (F)Report Date / TimeSource
2008-08-11 07:52:00 69 87 65.0 2017-12-29 19:14:24.89625 Springfield-Branson National Airport (SGF)
2008-08-11 08:52:00 73 74 64.0 2017-12-29 19:14:24.89625 Springfield-Branson National Airport (SGF)
2008-08-11 09:52:00 76 67 64.0 2017-12-29 19:14:24.89625 Springfield-Branson National Airport (SGF)
2008-08-11 10:52:00 78 60 63.0 2017-12-29 19:14:24.89625 Springfield-Branson National Airport (SGF)
2008-08-11 11:52:00 80 56 63.0 2017-12-29 19:14:24.89625 Springfield-Branson National Airport (SGF)
2008-08-11 12:52:00 81 53 62.0 2017-12-29 19:14:24.89625 Springfield-Branson National Airport (SGF)
2008-08-11 13:52:00 82 49 61.0 2017-12-29 19:14:24.89625 Springfield-Branson National Airport (SGF)
2008-08-11 14:52:00 82 49 61.0 2017-12-29 19:14:24.89625 Springfield-Branson National Airport (SGF)
2008-08-11 15:52:00 82 49 61.0 2017-12-29 19:14:24.89625 Springfield-Branson National Airport (SGF)
2008-08-11 16:52:00 80 51 60.0 2017-12-29 19:14:24.89625 Springfield-Branson National Airport (SGF)
2008-08-11 17:52:00 79 56 62.0 2017-12-29 19:14:24.89625 Springfield-Branson National Airport (SGF)
2008-08-11 18:52:00 76 64 63.0 2017-12-29 19:14:24.89625 Springfield-Branson National Airport (SGF)
2008-08-11 19:52:00 75 66 63.0 2017-12-29 19:14:24.89625 Springfield-Branson National Airport (SGF)
2008-08-11 20:52:00 74 74 65.0 2017-12-29 19:14:24.89625 Springfield-Branson National Airport (SGF)
2008-08-11 21:52:00 74 69 63.0 2017-12-29 19:14:24.89625 Springfield-Branson National Airport (SGF)
2008-08-11 22:52:00 73 74 64.0 2017-12-29 19:14:24.89625 Springfield-Branson National Airport (SGF)
2008-08-11 23:52:00 72 76 64.0 2017-12-29 19:14:24.89625 Springfield-Branson National Airport (SGF)
2008-08-11 00:52:00 65 93 63.0 2017-12-29 19:14:24.89625 Springfield-Branson National Airport (SGF)
2008-08-11 01:52:00 67 91 64.0 2017-12-29 19:14:24.89625 Springfield-Branson National Airport (SGF)
2008-08-11 02:52:00 65 93 63.0 2017-12-29 19:14:24.89625 Springfield-Branson National Airport (SGF)
2008-08-11 03:52:00 66 87 62.0 2017-12-29 19:14:24.89625 Springfield-Branson National Airport (SGF)
2008-08-11 04:52:00 65 93 63.0 2017-12-29 19:14:24.89625 Springfield-Branson National Airport (SGF)
2008-08-11 05:52:00 66 90 63.0 2017-12-29 19:14:24.89625 Springfield-Branson National Airport (SGF)
2008-08-11 06:52:00 68 90 65.0 2017-12-29 19:14:24.89625 Springfield-Branson National Airport (SGF)

A total of 24 rows are displayed.